createdAt,value
2018-02-03T00:00:29.301Z,0.00
2018-02-03T00:01:29.277Z,0.00
2018-02-03T00:02:29.263Z,0.00
2018-02-03T00:03:29.243Z,0.00
2018-02-03T00:04:29.242Z,0.00
2018-02-03T00:05:29.200Z,0.00
2018-02-03T00:06:29.183Z,0.00
2018-02-03T00:07:29.171Z,0.00
2018-02-03T00:08:29.153Z,0.00
2018-02-03T00:09:29.137Z,0.00
2018-02-03T00:10:29.135Z,0.00
2018-02-03T00:11:29.095Z,0.00
2018-02-03T00:12:29.075Z,0.00
2018-02-03T00:13:29.053Z,0.00
2018-02-03T00:14:29.036Z,0.00
2018-02-03T00:15:29.033Z,0.00
2018-02-03T00:16:29.044Z,0.00
2018-02-03T00:17:28.998Z,0.00
2018-02-03T00:18:28.983Z,0.00
2018-02-03T00:19:28.953Z,0.00
2018-02-03T00:20:28.928Z,0.00
2018-02-03T00:21:28.927Z,0.00
2018-02-03T00:22:28.894Z,0.00
2018-02-03T00:23:28.875Z,0.00
2018-02-03T00:24:28.858Z,0.00
2018-02-03T00:25:28.834Z,0.00
2018-02-03T00:26:28.829Z,0.00
2018-02-03T00:27:28.826Z,0.00
2018-02-03T00:28:28.783Z,0.00
2018-02-03T00:29:28.781Z,0.00
2018-02-03T00:30:28.744Z,0.00
2018-02-03T00:31:28.726Z,0.00
2018-02-03T00:32:28.706Z,0.00
2018-02-03T00:33:28.690Z,0.00
2018-02-03T00:34:28.699Z,0.00
2018-02-03T00:35:28.652Z,0.00
2018-02-03T00:36:28.631Z,0.00
2018-02-03T00:37:28.634Z,0.00
2018-02-03T00:38:28.604Z,0.00
2018-02-03T00:39:28.579Z,0.00
2018-02-03T00:40:28.558Z,0.00
2018-02-03T00:41:28.547Z,0.00
2018-02-03T00:42:28.535Z,0.00
2018-02-03T00:43:28.505Z,0.00
2018-02-03T00:44:28.489Z,0.00
2018-02-03T00:45:28.483Z,0.00
2018-02-03T00:46:28.449Z,0.00
2018-02-03T00:47:28.431Z,0.00
2018-02-03T00:48:28.416Z,0.00
2018-02-03T00:49:28.400Z,0.00
2018-02-03T00:50:28.381Z,0.00
2018-02-03T00:51:28.377Z,0.00
2018-02-03T00:52:28.342Z,0.00
2018-02-03T00:53:28.320Z,0.00
2018-02-03T00:54:28.311Z,0.00
2018-02-03T00:55:28.281Z,0.00
2018-02-03T00:56:28.284Z,0.00
2018-02-03T00:57:28.251Z,0.00
2018-02-03T00:58:28.234Z,0.00
2018-02-03T00:59:28.212Z,0.00
2018-02-03T01:00:28.211Z,0.00
2018-02-03T01:01:28.192Z,0.00
2018-02-03T01:02:28.159Z,0.00
2018-02-03T01:03:28.150Z,0.00
2018-02-03T01:04:28.138Z,0.00
2018-02-03T01:05:28.102Z,0.00
2018-02-03T01:06:28.085Z,0.00
2018-02-03T01:07:28.084Z,0.00
2018-02-03T01:08:28.054Z,0.00
2018-02-03T01:09:28.027Z,0.00
2018-02-03T01:10:28.014Z,0.00
2018-02-03T01:11:27.996Z,0.00
2018-02-03T01:12:27.990Z,0.00
2018-02-03T01:13:27.952Z,0.00
2018-02-03T01:14:27.943Z,0.00
2018-02-03T01:15:27.930Z,0.00
2018-02-03T01:16:27.905Z,0.00
2018-02-03T01:17:27.883Z,0.00
2018-02-03T01:18:27.881Z,0.00
2018-02-03T01:19:27.843Z,0.00
2018-02-03T01:20:27.825Z,0.00
2018-02-03T01:21:27.817Z,0.00
2018-02-03T01:22:27.794Z,0.00
2018-02-03T01:23:27.788Z,0.00
2018-02-03T01:24:27.753Z,0.00
2018-02-03T01:25:27.736Z,0.00
2018-02-03T01:26:27.726Z,0.00
2018-02-03T01:27:27.702Z,0.00
2018-02-03T01:28:27.680Z,0.00
2018-02-03T01:29:27.678Z,0.00
2018-02-03T01:30:27.652Z,0.00
2018-02-03T01:31:27.628Z,0.00
2018-02-03T01:32:27.613Z,0.00
2018-02-03T01:33:27.593Z,0.00
2018-02-03T01:34:27.587Z,0.00
2018-02-03T01:35:27.556Z,0.00
2018-02-03T01:36:27.530Z,0.00
2018-02-03T01:37:27.521Z,0.00
2018-02-03T01:38:27.498Z,0.00
2018-02-03T01:39:27.497Z,0.00
2018-02-03T01:40:27.459Z,0.00
2018-02-03T01:41:27.444Z,0.00
2018-02-03T01:42:27.422Z,0.00
2018-02-03T01:43:27.406Z,0.00
2018-02-03T01:44:27.406Z,0.00
2018-02-03T01:45:27.368Z,0.00
2018-02-03T01:46:27.348Z,0.00
2018-02-03T01:47:27.334Z,0.00
2018-02-03T01:48:27.318Z,0.00
2018-02-03T01:49:27.332Z,0.00
2018-02-03T01:50:27.276Z,0.00
2018-02-03T01:51:27.273Z,0.00
2018-02-03T01:52:27.238Z,0.00
2018-02-03T01:53:27.222Z,0.00
2018-02-03T01:54:27.210Z,0.00
2018-02-03T01:55:27.183Z,0.00
2018-02-03T01:56:27.240Z,0.00
2018-02-03T01:57:27.151Z,0.00
2018-02-03T01:58:27.130Z,0.00
2018-02-03T01:59:27.107Z,0.00
2018-02-03T02:00:27.095Z,0.00
2018-02-03T02:01:27.071Z,0.00
2018-02-03T02:02:27.075Z,0.00
2018-02-03T02:03:27.039Z,0.00
2018-02-03T02:04:27.021Z,0.00
2018-02-03T02:05:26.999Z,0.00
2018-02-03T02:06:26.979Z,0.00
2018-02-03T02:07:26.980Z,0.00
2018-02-03T02:08:26.944Z,0.00
2018-02-03T02:09:26.925Z,0.00
2018-02-03T02:10:26.908Z,0.00
2018-02-03T02:11:26.891Z,0.00
2018-02-03T02:12:26.870Z,0.00
2018-02-03T02:13:26.870Z,0.00
2018-02-03T02:14:26.836Z,0.00
2018-02-03T02:15:26.817Z,0.00
2018-02-03T02:16:26.799Z,0.00
2018-02-03T02:17:26.774Z,0.00
2018-02-03T02:18:26.774Z,0.00
2018-02-03T02:19:26.743Z,0.00
2018-02-03T02:20:26.720Z,0.00
2018-02-03T02:21:26.712Z,0.00
2018-02-03T02:22:26.706Z,0.00
2018-02-03T02:23:26.683Z,0.00
2018-02-03T02:24:26.660Z,0.00
2018-02-03T02:25:26.632Z,0.00
2018-02-03T02:26:26.617Z,0.00
2018-02-03T02:27:26.593Z,0.00
2018-02-03T02:28:26.590Z,0.00
2018-02-03T02:29:26.573Z,0.00
2018-02-03T02:30:26.536Z,0.00
2018-02-03T02:31:26.522Z,0.00
2018-02-03T02:32:26.497Z,0.00
2018-02-03T02:33:26.484Z,0.00
2018-02-03T02:34:26.477Z,0.00
2018-02-03T02:35:26.445Z,0.00
2018-02-03T02:36:26.430Z,0.00
2018-02-03T02:37:26.410Z,0.00
2018-02-03T02:38:26.394Z,0.00
2018-02-03T02:39:26.390Z,0.00
2018-02-03T02:40:26.367Z,0.00
2018-02-03T02:41:26.335Z,0.00
2018-02-03T02:42:26.318Z,0.00
2018-02-03T02:43:26.296Z,0.00
2018-02-03T02:44:26.280Z,0.00
2018-02-03T02:45:26.261Z,0.00
2018-02-03T02:46:26.255Z,0.00
2018-02-03T02:47:26.221Z,0.00
2018-02-03T02:48:26.206Z,0.00
2018-02-03T02:49:26.186Z,0.00
2018-02-03T02:50:26.167Z,0.00
2018-02-03T02:51:26.167Z,0.00
2018-02-03T02:52:26.126Z,0.00
2018-02-03T02:53:26.111Z,0.00
2018-02-03T02:54:26.094Z,0.00
2018-02-03T02:55:26.072Z,0.00
2018-02-03T02:56:26.054Z,0.00
2018-02-03T02:57:26.054Z,0.00
2018-02-03T02:58:26.013Z,0.00
2018-02-03T02:59:26.002Z,0.00
2018-02-03T03:00:25.980Z,0.00
2018-02-03T03:01:25.957Z,0.00
2018-02-03T03:02:25.942Z,0.00
2018-02-03T03:03:25.944Z,0.00
2018-02-03T03:04:25.907Z,0.00
2018-02-03T03:05:25.886Z,0.00
2018-02-03T03:06:25.867Z,0.00
2018-02-03T03:07:25.851Z,0.00
2018-02-03T03:08:25.877Z,0.00
2018-02-03T03:09:25.812Z,0.00
2018-02-03T03:10:25.787Z,0.00
2018-02-03T03:11:25.777Z,0.00
2018-02-03T03:12:25.761Z,0.00
2018-02-03T03:13:25.738Z,0.00
2018-02-03T03:14:25.736Z,0.00
2018-02-03T03:15:25.699Z,0.00
2018-02-03T03:16:25.686Z,0.00
2018-02-03T03:17:25.659Z,0.00
2018-02-03T03:18:25.660Z,0.00
2018-02-03T03:19:25.622Z,0.00
2018-02-03T03:20:25.623Z,0.00
2018-02-03T03:21:25.589Z,0.00
2018-02-03T03:22:25.571Z,0.00
2018-02-03T03:23:25.560Z,0.00
2018-02-03T03:24:25.550Z,0.00
2018-02-03T03:25:25.531Z,0.00
2018-02-03T03:26:25.513Z,0.00
2018-02-03T03:27:25.486Z,0.00
2018-02-03T03:28:25.464Z,0.00
2018-02-03T03:29:25.442Z,0.00
2018-02-03T03:30:25.438Z,0.00
2018-02-03T03:31:25.412Z,0.00
2018-02-03T03:32:25.384Z,0.00
2018-02-03T03:33:25.365Z,0.00
2018-02-03T03:34:25.349Z,0.00
2018-02-03T03:35:25.345Z,0.00
2018-02-03T03:36:25.307Z,0.00
2018-02-03T03:37:25.289Z,0.00
2018-02-03T03:38:25.267Z,0.00
2018-02-03T03:39:25.258Z,0.00
2018-02-03T03:40:25.263Z,0.00
2018-02-03T03:41:25.214Z,0.00
2018-02-03T03:42:25.220Z,0.00
2018-02-03T03:43:25.184Z,0.00
2018-02-03T03:44:25.161Z,0.00
2018-02-03T03:45:25.136Z,0.00
2018-02-03T03:46:25.136Z,0.00
2018-02-03T03:47:25.108Z,0.00
2018-02-03T03:48:25.085Z,0.00
2018-02-03T03:49:25.069Z,0.00
2018-02-03T03:50:25.041Z,0.00
2018-02-03T03:51:25.047Z,0.00
2018-02-03T03:52:25.008Z,0.00
2018-02-03T03:53:25.048Z,0.00
2018-02-03T03:54:24.984Z,0.00
2018-02-03T03:55:24.951Z,0.00
2018-02-03T03:56:24.935Z,0.00
2018-02-03T03:57:24.927Z,0.00
2018-02-03T03:58:24.895Z,0.00
2018-02-03T03:59:24.874Z,0.00
2018-02-03T04:00:24.857Z,0.00
2018-02-03T04:01:24.841Z,0.00
2018-02-03T04:02:24.850Z,0.00
2018-02-03T04:03:24.804Z,0.00
2018-02-03T04:04:24.787Z,0.00
2018-02-03T04:05:24.769Z,0.00
2018-02-03T04:06:24.748Z,0.00
2018-02-03T04:07:24.734Z,0.00
2018-02-03T04:08:24.738Z,0.00
2018-02-03T04:09:24.713Z,0.00
2018-02-03T04:10:24.677Z,0.00
2018-02-03T04:11:24.649Z,0.00
2018-02-03T04:12:24.635Z,0.00
2018-02-03T04:13:24.619Z,0.00
2018-02-03T04:14:24.596Z,0.00
2018-02-03T04:15:45.584Z,0.00
2018-02-03T04:16:24.562Z,0.00
2018-02-03T04:17:24.542Z,0.00
2018-02-03T04:18:24.520Z,0.00
2018-02-03T04:19:24.500Z,0.00
2018-02-03T04:20:24.497Z,0.00
2018-02-03T04:21:24.465Z,0.00
2018-02-03T04:22:24.450Z,0.00
2018-02-03T04:23:24.423Z,0.00
2018-02-03T04:24:24.410Z,0.00
2018-02-03T04:25:24.406Z,0.00
2018-02-03T04:26:24.388Z,0.00
2018-02-03T04:27:24.362Z,0.00
2018-02-03T04:28:24.336Z,0.00
2018-02-03T04:29:24.316Z,0.00
2018-02-03T04:30:24.312Z,0.00
2018-02-03T04:31:24.300Z,0.00
2018-02-03T04:32:24.260Z,0.00
2018-02-03T04:33:24.244Z,0.00
2018-02-03T04:34:24.224Z,0.00
2018-02-03T04:35:24.205Z,0.00
2018-02-03T04:36:24.185Z,0.00
2018-02-03T04:37:24.184Z,0.00
2018-02-03T04:38:24.148Z,0.00
2018-02-03T04:39:24.130Z,0.00
2018-02-03T04:40:24.113Z,0.00
2018-02-03T04:41:24.094Z,0.00
2018-02-03T04:42:24.093Z,0.00
2018-02-03T04:43:24.054Z,0.00
2018-02-03T04:44:24.047Z,0.00
2018-02-03T04:45:24.075Z,0.00
2018-02-03T04:46:24.019Z,0.00
2018-02-03T04:47:23.994Z,0.00
2018-02-03T04:48:23.968Z,0.00
2018-02-03T04:49:23.943Z,0.00
2018-02-03T04:50:23.930Z,0.00
2018-02-03T04:51:23.903Z,0.00
2018-02-03T04:52:23.889Z,0.00
2018-02-03T04:54:55.894Z,0.00
2018-02-03T04:55:55.857Z,0.00
2018-02-03T04:56:55.847Z,0.00
2018-02-03T04:57:55.822Z,0.00
2018-02-03T04:58:55.798Z,0.00
2018-02-03T04:59:55.794Z,0.00
2018-02-03T05:00:55.760Z,0.00
2018-02-03T05:01:55.759Z,0.00
2018-02-03T05:02:55.724Z,0.00
2018-02-03T05:03:55.721Z,0.00
2018-02-03T05:04:55.686Z,0.00
2018-02-03T05:05:55.668Z,0.00
2018-02-03T05:06:55.647Z,0.00
2018-02-03T05:07:55.641Z,0.00
2018-02-03T05:08:55.628Z,0.00
2018-02-03T05:09:55.596Z,0.00
2018-02-03T05:10:55.618Z,0.00
2018-02-03T05:11:55.565Z,0.00
2018-02-03T05:12:55.566Z,0.00
2018-02-03T05:13:55.536Z,0.00
2018-02-03T05:14:55.509Z,0.00
2018-02-03T05:15:55.486Z,0.00
2018-02-03T05:16:55.487Z,0.00
2018-02-03T05:17:55.461Z,0.00
2018-02-03T05:18:55.428Z,0.00
2018-02-03T05:19:55.418Z,0.00
2018-02-03T05:20:55.406Z,0.00
2018-02-03T05:21:55.389Z,0.00
2018-02-03T05:22:55.352Z,0.00
2018-02-03T05:23:55.333Z,0.00
2018-02-03T05:24:55.322Z,0.00
2018-02-03T05:25:55.292Z,0.00
2018-02-03T05:26:55.278Z,0.00
2018-02-03T05:27:55.278Z,0.00
2018-02-03T05:28:55.240Z,0.00
2018-02-03T05:29:55.238Z,0.00
2018-02-03T05:30:55.220Z,0.00
2018-02-03T05:31:55.182Z,0.00
2018-02-03T05:32:55.161Z,0.00
2018-02-03T05:33:55.146Z,0.00
2018-02-03T05:34:55.130Z,0.00
2018-02-03T05:35:55.130Z,0.00
2018-02-03T05:36:55.087Z,0.00
2018-02-03T05:37:55.072Z,0.00
2018-02-03T05:38:55.054Z,0.00
2018-02-03T05:39:55.032Z,0.00
2018-02-03T05:40:55.017Z,0.00
2018-02-03T05:41:55.013Z,0.00
2018-02-03T05:42:54.977Z,0.00
2018-02-03T05:43:54.956Z,0.00
2018-02-03T05:44:54.953Z,0.00
2018-02-03T05:45:54.921Z,0.00
2018-02-03T05:46:54.897Z,0.00
2018-02-03T05:47:54.881Z,0.00
2018-02-03T05:48:54.862Z,0.00
2018-02-03T05:49:54.860Z,0.00
2018-02-03T05:50:54.843Z,0.00
2018-02-03T05:51:54.821Z,0.00
2018-02-03T05:52:54.788Z,0.00
2018-02-03T05:53:54.767Z,0.00
2018-02-03T05:54:54.766Z,0.00
2018-02-03T05:55:54.732Z,0.00
2018-02-03T05:56:54.712Z,0.00
2018-02-03T05:57:54.693Z,0.00
2018-02-03T05:58:54.669Z,0.00
2018-02-03T05:59:54.669Z,0.00
2018-02-03T06:00:54.635Z,0.00
2018-02-03T06:01:54.617Z,0.00
2018-02-03T06:03:15.613Z,0.00
2018-02-03T06:03:54.571Z,0.00
2018-02-03T06:04:54.580Z,0.00
2018-02-03T06:05:54.551Z,0.00
2018-02-03T06:06:54.519Z,0.00
2018-02-03T06:07:54.518Z,0.00
2018-02-03T06:08:54.481Z,0.00
2018-02-03T06:09:54.461Z,0.00
2018-02-03T06:10:54.442Z,0.00
2018-02-03T06:11:54.423Z,0.00
2018-02-03T06:12:54.405Z,0.00
2018-02-03T06:13:54.405Z,0.00
2018-02-03T06:14:54.366Z,0.00
2018-02-03T06:15:54.343Z,0.00
2018-02-03T06:16:54.327Z,0.00
2018-02-03T06:17:54.309Z,0.00
2018-02-03T06:18:54.305Z,0.00
2018-02-03T06:19:54.270Z,0.00
2018-02-03T06:20:54.247Z,0.00
2018-02-03T06:21:54.235Z,0.00
2018-02-03T06:22:54.208Z,0.00
2018-02-03T06:23:54.193Z,0.00
2018-02-03T06:24:54.188Z,0.00
2018-02-03T06:25:54.159Z,0.00
2018-02-03T06:26:54.130Z,0.00
2018-02-03T06:27:54.111Z,0.00
2018-02-03T06:28:54.111Z,0.00
2018-02-03T06:29:54.082Z,0.00
2018-02-03T06:30:54.059Z,0.00
2018-02-03T06:31:54.037Z,0.00
2018-02-03T06:32:54.012Z,0.00
2018-02-03T06:33:54.005Z,0.00
2018-02-03T06:34:54.146Z,0.00
2018-02-03T06:35:53.957Z,0.00
2018-02-03T06:36:53.935Z,0.00
2018-02-03T06:37:53.930Z,0.00
2018-02-03T06:38:53.915Z,0.00
2018-02-03T06:39:56.768Z,4.00
2018-02-03T06:40:53.865Z,4.00
2018-02-03T06:41:53.853Z,4.00
2018-02-03T06:42:53.823Z,0.00
2018-02-03T06:43:53.802Z,4.00
2018-02-03T06:44:53.801Z,0.00
2018-02-03T06:45:53.787Z,4.00
2018-02-03T06:46:53.752Z,4.00
2018-02-03T06:47:53.728Z,8.00
2018-02-03T06:48:53.730Z,8.00
2018-02-03T06:49:53.773Z,8.00
2018-02-03T06:50:53.680Z,12.00
2018-02-03T06:51:53.647Z,8.00
2018-02-03T06:52:53.633Z,12.00
2018-02-03T06:53:53.621Z,16.00
2018-02-03T06:54:53.588Z,20.00
2018-02-03T06:55:53.584Z,24.00
2018-02-03T06:56:53.553Z,24.00
2018-02-03T06:57:53.527Z,32.00
2018-02-03T06:58:53.532Z,32.00
2018-02-03T06:59:53.533Z,40.00
2018-02-03T07:00:53.470Z,48.00
2018-02-03T07:01:53.473Z,52.00
2018-02-03T07:02:53.432Z,60.00
2018-02-03T07:03:53.415Z,72.00
2018-02-03T07:04:53.396Z,80.00
2018-02-03T07:05:53.380Z,88.00
2018-02-03T07:06:53.358Z,104.00
2018-02-03T07:07:53.351Z,112.00
2018-02-03T07:08:53.318Z,120.00
2018-02-03T07:09:53.293Z,128.00
2018-02-03T07:10:53.278Z,136.00
2018-02-03T07:11:53.257Z,144.00
2018-02-03T07:12:53.238Z,152.00
2018-02-03T07:13:53.231Z,168.00
2018-02-03T07:14:53.193Z,168.00
2018-02-03T07:15:53.179Z,156.00
2018-02-03T07:16:53.159Z,156.00
2018-02-03T07:17:53.139Z,168.00
2018-02-03T07:18:53.130Z,176.00
2018-02-03T07:19:53.094Z,172.00
2018-02-03T07:20:53.082Z,180.00
2018-02-03T07:21:53.080Z,188.00
2018-02-03T07:22:53.043Z,196.00
2018-02-03T07:23:53.020Z,196.00
2018-02-03T07:24:53.027Z,208.00
2018-02-03T07:25:52.987Z,212.00
2018-02-03T07:26:52.968Z,232.00
2018-02-03T07:27:52.949Z,276.00
2018-02-03T07:28:52.929Z,296.00
2018-02-03T07:29:53.545Z,320.00
2018-02-03T07:30:52.901Z,396.00
2018-02-03T07:31:52.870Z,428.00
2018-02-03T07:32:52.851Z,468.00
2018-02-03T07:33:52.835Z,464.00
2018-02-03T07:34:52.818Z,520.00
2018-02-03T07:35:52.809Z,616.00
2018-02-03T07:36:52.792Z,648.00
2018-02-03T07:37:52.754Z,608.00
2018-02-03T07:38:52.755Z,612.00
2018-02-03T07:39:52.711Z,568.00
2018-02-03T07:40:52.719Z,548.00
2018-02-03T07:41:52.679Z,620.00
2018-02-03T07:42:52.660Z,692.00
2018-02-03T07:43:52.639Z,684.00
2018-02-03T07:44:52.620Z,680.00
2018-02-03T07:45:52.659Z,692.00
2018-02-03T07:46:52.583Z,772.00
2018-02-03T07:47:52.568Z,792.00
2018-02-03T07:48:52.554Z,844.00
2018-02-03T07:49:52.543Z,888.00
2018-02-03T07:50:52.520Z,860.00
2018-02-03T07:51:52.487Z,936.00
2018-02-03T07:52:52.464Z,964.00
2018-02-03T07:53:52.448Z,1048.00
2018-02-03T07:54:52.430Z,1060.00
2018-02-03T07:55:52.414Z,1164.00
2018-02-03T07:56:52.410Z,1188.00
2018-02-03T07:57:52.369Z,1272.00
2018-02-03T07:58:52.352Z,1344.00
2018-02-03T07:59:52.337Z,1448.00
2018-02-03T08:00:52.320Z,1544.00
2018-02-03T08:01:52.296Z,1592.00
2018-02-03T08:02:52.289Z,1596.00
2018-02-03T08:03:53.049Z,1560.00
2018-02-03T08:04:52.238Z,1568.00
2018-02-03T08:05:52.224Z,1584.00
2018-02-03T08:06:52.209Z,1508.00
2018-02-03T08:08:13.194Z,1620.00
2018-02-03T08:08:52.175Z,1704.00
2018-02-03T08:09:52.144Z,1788.00
2018-02-03T08:10:52.127Z,1788.00
2018-02-03T08:11:52.099Z,1848.00
2018-02-03T08:12:52.101Z,1852.00
2018-02-03T08:13:52.085Z,1928.00
2018-02-03T08:14:52.061Z,1996.00
2018-02-03T08:15:52.031Z,1996.00
2018-02-03T08:16:52.008Z,2060.00
2018-02-03T08:17:51.987Z,2236.00
2018-02-03T08:18:51.971Z,2424.00
2018-02-03T08:19:51.950Z,2456.00
2018-02-03T08:20:51.960Z,2448.00
2018-02-03T08:21:51.914Z,2484.00
2018-02-03T08:22:51.896Z,2528.00
2018-02-03T08:23:51.872Z,2724.00
2018-02-03T08:26:43.094Z,3012.00
2018-02-03T08:27:23.856Z,3112.00
2018-02-03T08:28:23.839Z,3228.00
2018-02-03T08:29:23.823Z,3396.00
2018-02-03T08:30:23.818Z,3436.00
2018-02-03T08:31:23.784Z,3396.00
2018-02-03T08:32:23.766Z,3336.00
2018-02-03T08:33:24.537Z,3184.00
2018-02-03T08:34:23.722Z,3128.00
2018-02-03T08:35:23.707Z,3136.00
2018-02-03T08:36:23.706Z,3220.00
2018-02-03T08:37:23.682Z,3332.00
2018-02-03T08:38:23.669Z,3324.00
2018-02-03T08:39:23.640Z,3284.00
2018-02-03T08:40:23.615Z,3284.00
2018-02-03T08:41:23.591Z,3316.00
2018-02-03T08:42:23.573Z,3356.00
2018-02-03T08:43:23.555Z,3312.00
2018-02-03T08:44:23.550Z,3200.00
2018-02-03T08:45:23.511Z,3164.00
2018-02-03T08:46:23.514Z,3220.00
2018-02-03T08:47:23.480Z,3296.00
2018-02-03T08:48:23.460Z,3348.00
2018-02-03T08:49:23.457Z,3444.00
2018-02-03T08:50:23.437Z,3616.00
2018-02-03T08:51:23.396Z,3744.00
2018-02-03T08:52:23.382Z,3920.00
2018-02-03T08:53:23.368Z,4052.00
2018-02-03T08:54:23.349Z,4232.00
2018-02-03T08:55:23.342Z,4364.00
2018-02-03T08:56:23.324Z,4488.00
2018-02-03T08:57:23.291Z,4476.00
2018-02-03T08:58:23.282Z,4448.00
2018-02-03T08:59:23.251Z,4496.00
2018-02-03T09:00:23.230Z,4600.00
2018-02-03T09:01:23.252Z,4684.00
2018-02-03T09:02:23.191Z,4640.00
2018-02-03T09:03:23.175Z,4668.00
2018-02-03T09:04:23.156Z,4724.00
2018-02-03T09:05:23.134Z,4832.00
2018-02-03T09:06:23.120Z,4992.00
2018-02-03T09:07:23.113Z,5096.00
2018-02-03T09:08:23.081Z,5116.00
2018-02-03T09:09:23.056Z,5024.00
2018-02-03T09:10:23.041Z,4880.00
2018-02-03T09:11:23.025Z,4744.00
2018-02-03T09:12:23.022Z,4628.00
2018-02-03T09:13:22.988Z,4428.00
2018-02-03T09:14:22.971Z,4276.00
2018-02-03T09:15:22.957Z,4176.00
2018-02-03T09:16:22.931Z,4164.00
2018-02-03T09:17:22.930Z,4088.00
2018-02-03T09:18:22.891Z,4136.00
2018-02-03T09:19:22.872Z,4256.00
2018-02-03T09:20:22.857Z,4392.00
2018-02-03T09:21:22.837Z,4484.00
2018-02-03T09:22:22.844Z,4616.00
2018-02-03T09:23:22.815Z,4828.00
2018-02-03T09:24:22.785Z,5020.00
2018-02-03T09:25:22.761Z,5024.00
2018-02-03T09:26:22.770Z,4932.00
2018-02-03T09:27:22.726Z,4964.00
2018-02-03T09:28:22.727Z,5000.00
2018-02-03T09:29:22.690Z,4528.00
2018-02-03T09:30:22.665Z,3768.00
2018-02-03T09:31:22.652Z,3208.00
2018-02-03T09:32:22.644Z,2848.00
2018-02-03T09:33:22.624Z,2596.00
2018-02-03T09:34:22.591Z,2376.00
2018-02-03T09:35:22.583Z,2256.00
2018-02-03T09:36:22.558Z,2240.00
2018-02-03T09:37:22.544Z,2292.00
2018-02-03T09:38:22.527Z,2916.00
2018-02-03T09:39:22.514Z,3348.00
2018-02-03T09:40:22.498Z,4144.00
2018-02-03T09:41:22.462Z,5096.00
2018-02-03T09:42:22.448Z,6336.00
2018-02-03T09:43:22.424Z,7296.00
2018-02-03T09:44:22.424Z,7820.00
2018-02-03T09:45:22.389Z,7564.00
2018-02-03T09:46:22.372Z,6592.00
2018-02-03T09:47:22.352Z,5944.00
2018-02-03T09:48:22.334Z,5224.00
2018-02-03T09:49:22.334Z,5472.00
2018-02-03T09:50:22.310Z,4780.00
2018-02-03T09:51:22.280Z,3980.00
2018-02-03T09:52:22.276Z,3508.00
2018-02-03T09:53:22.244Z,3496.00
2018-02-03T09:54:22.245Z,3852.00
2018-02-03T09:55:22.202Z,4244.00
2018-02-03T09:56:22.186Z,6344.00
2018-02-03T09:57:22.165Z,7300.00
2018-02-03T09:58:22.153Z,6168.00
2018-02-03T09:59:22.130Z,5612.00
2018-02-03T10:00:22.132Z,6452.00
2018-02-03T10:01:22.092Z,7096.00
2018-02-03T10:02:22.074Z,7324.00
2018-02-03T10:03:22.055Z,7228.00
2018-02-03T10:04:22.040Z,7040.00
2018-02-03T10:05:22.020Z,7540.00
2018-02-03T10:06:22.017Z,7612.00
2018-02-03T10:07:21.985Z,8328.00
2018-02-03T10:08:21.963Z,9916.00
2018-02-03T10:09:21.953Z,11732.00
2018-02-03T10:10:21.948Z,12192.00
2018-02-03T10:11:21.910Z,9692.00
2018-02-03T10:12:21.903Z,10904.00
2018-02-03T10:13:21.874Z,9136.00
2018-02-03T10:14:21.858Z,7436.00
2018-02-03T10:15:21.858Z,7568.00
2018-02-03T10:16:21.822Z,7704.00
2018-02-03T10:17:21.804Z,8728.00
2018-02-03T10:18:21.787Z,7280.00
2018-02-03T10:19:21.774Z,7132.00
2018-02-03T10:20:21.751Z,8996.00
2018-02-03T10:21:21.755Z,8364.00
2018-02-03T10:22:21.712Z,8516.00
2018-02-03T10:23:21.695Z,8248.00
2018-02-03T10:24:21.680Z,7948.00
2018-02-03T10:25:21.663Z,9992.00
2018-02-03T10:26:21.644Z,11180.00
2018-02-03T10:27:21.640Z,10712.00
2018-02-03T10:28:21.616Z,10532.00
2018-02-03T10:29:21.591Z,10596.00
2018-02-03T10:30:21.574Z,8892.00
2018-02-03T10:31:21.548Z,9444.00
2018-02-03T10:32:21.551Z,11224.00
2018-02-03T10:33:21.521Z,11220.00
2018-02-03T10:34:21.499Z,12052.00
2018-02-03T10:35:21.484Z,11284.00
2018-02-03T10:36:21.473Z,11276.00
2018-02-03T10:37:21.473Z,11036.00
2018-02-03T10:38:21.445Z,10620.00
2018-02-03T10:39:21.421Z,9860.00
2018-02-03T10:40:21.396Z,9136.00
2018-02-03T10:41:21.475Z,9792.00
2018-02-03T10:42:21.357Z,8792.00
2018-02-03T10:43:21.345Z,8316.00
2018-02-03T10:44:21.337Z,8196.00
2018-02-03T10:45:21.353Z,7956.00
2018-02-03T10:46:21.290Z,6816.00
2018-02-03T10:47:21.275Z,7212.00
2018-02-03T10:48:21.255Z,7612.00
2018-02-03T10:49:21.253Z,6764.00
2018-02-03T10:50:21.232Z,8144.00
2018-02-03T10:51:21.197Z,8604.00
2018-02-03T10:52:21.193Z,8296.00
2018-02-03T10:53:21.172Z,7820.00
2018-02-03T10:54:21.165Z,6168.00
2018-02-03T10:55:21.136Z,5392.00
2018-02-03T10:56:21.120Z,5428.00
2018-02-03T10:57:21.103Z,6040.00
2018-02-03T10:58:21.079Z,6420.00
2018-02-03T10:59:21.082Z,6112.00
2018-02-03T11:00:21.048Z,7188.00
2018-02-03T11:01:21.039Z,7548.00
2018-02-03T11:02:21.017Z,7680.00
2018-02-03T11:03:20.994Z,8120.00
2018-02-03T11:04:20.996Z,7764.00
2018-02-03T11:05:20.967Z,7540.00
2018-02-03T11:06:20.938Z,7316.00
2018-02-03T11:07:20.926Z,6292.00
2018-02-03T11:08:20.911Z,5932.00
2018-02-03T11:09:20.908Z,6480.00
2018-02-03T11:10:20.881Z,5580.00
2018-02-03T11:11:20.869Z,5128.00
2018-02-03T11:12:20.841Z,5944.00
2018-02-03T11:13:20.831Z,6888.00
2018-02-03T11:14:20.808Z,7116.00
2018-02-03T11:15:20.785Z,7188.00
2018-02-03T11:16:20.786Z,7344.00
2018-02-03T11:17:20.770Z,7344.00
2018-02-03T11:18:20.746Z,7172.00
2018-02-03T11:19:20.723Z,6892.00
2018-02-03T11:20:20.704Z,6368.00
2018-02-03T11:21:20.681Z,6392.00
2018-02-03T11:22:20.685Z,5812.00
2018-02-03T11:23:20.655Z,5128.00
2018-02-03T11:24:20.632Z,4380.00
2018-02-03T11:25:20.622Z,5004.00
2018-02-03T11:26:20.633Z,5628.00
2018-02-03T11:27:20.595Z,4864.00
2018-02-03T11:28:20.565Z,4488.00
2018-02-03T11:29:20.547Z,5516.00
2018-02-03T11:30:20.532Z,6688.00
2018-02-03T11:31:20.511Z,7228.00
2018-02-03T11:32:20.517Z,6988.00
2018-02-03T11:33:20.482Z,5976.00
2018-02-03T11:34:20.461Z,6956.00
2018-02-03T11:35:20.442Z,5500.00
2018-02-03T11:36:20.431Z,5080.00
2018-02-03T11:37:20.415Z,5236.00
2018-02-03T11:38:20.417Z,5856.00
2018-02-03T11:39:20.386Z,5792.00
2018-02-03T11:40:20.359Z,5224.00
2018-02-03T11:41:20.344Z,5404.00
2018-02-03T11:42:20.325Z,5596.00
2018-02-03T11:43:20.313Z,5332.00
2018-02-03T11:44:20.322Z,4544.00
2018-02-03T11:45:20.271Z,3416.00
2018-02-03T11:46:20.259Z,2868.00
2018-02-03T11:47:20.242Z,2652.00
2018-02-03T11:48:20.226Z,2972.00
2018-02-03T11:49:20.203Z,3232.00
2018-02-03T11:50:20.204Z,3296.00
2018-02-03T11:51:20.174Z,3780.00
2018-02-03T11:52:20.160Z,4432.00
2018-02-03T11:53:20.142Z,5836.00
2018-02-03T11:54:20.119Z,7008.00
2018-02-03T11:55:20.108Z,7000.00
2018-02-03T11:56:20.102Z,6408.00
2018-02-03T11:57:20.071Z,6624.00
2018-02-03T11:58:20.051Z,7212.00
2018-02-03T11:59:20.035Z,7348.00
2018-02-03T12:00:20.031Z,6804.00
2018-02-03T12:01:20.003Z,7104.00
2018-02-03T12:02:19.993Z,7604.00
2018-02-03T12:03:20.000Z,7032.00
2018-02-03T12:04:19.949Z,6144.00
2018-02-03T12:05:19.936Z,6396.00
2018-02-03T12:06:19.925Z,6540.00
2018-02-03T12:07:19.917Z,5856.00
2018-02-03T12:08:19.879Z,5812.00
2018-02-03T12:09:19.875Z,7160.00
2018-02-03T12:10:19.845Z,8092.00
2018-02-03T12:11:19.828Z,8540.00
2018-02-03T12:12:19.824Z,9044.00
2018-02-03T12:13:19.818Z,9976.00
2018-02-03T12:14:19.779Z,9828.00
2018-02-03T12:15:19.809Z,9384.00
2018-02-03T12:16:19.754Z,9244.00
2018-02-03T12:17:19.727Z,8856.00
2018-02-03T12:18:19.711Z,8392.00
2018-02-03T12:19:19.754Z,7996.00
2018-02-03T12:20:19.674Z,7456.00
2018-02-03T12:21:19.656Z,6552.00
2018-02-03T12:22:19.647Z,4948.00
2018-02-03T12:23:19.633Z,4824.00
2018-02-03T12:24:19.607Z,4516.00
2018-02-03T12:25:19.625Z,4020.00
2018-02-03T12:26:19.572Z,3608.00
2018-02-03T12:27:19.564Z,3448.00
2018-02-03T12:28:19.558Z,3332.00
2018-02-03T12:29:19.534Z,3128.00
2018-02-03T12:30:19.505Z,3248.00
2018-02-03T12:31:19.504Z,3332.00
2018-02-03T12:32:19.472Z,3432.00
2018-02-03T12:33:19.453Z,3320.00
2018-02-03T12:34:19.459Z,3544.00
2018-02-03T12:35:19.432Z,3952.00
2018-02-03T12:36:19.435Z,4744.00
2018-02-03T12:37:19.381Z,5048.00
2018-02-03T12:38:19.380Z,5504.00
2018-02-03T12:39:19.375Z,6128.00
2018-02-03T12:40:19.337Z,6612.00
2018-02-03T12:41:19.327Z,6928.00
2018-02-03T12:42:19.299Z,7132.00
2018-02-03T12:43:19.287Z,7364.00
2018-02-03T12:44:19.295Z,7268.00
2018-02-03T12:45:19.252Z,6960.00
2018-02-03T12:46:19.233Z,6664.00
2018-02-03T12:47:19.214Z,6204.00